sensor_id;sensor_type;location;lat;lon;timestamp;P1;durP1;ratioP1;P2;durP2;ratioP2
50483;SDS011;36409;52.168;20.878;2024-01-15T00:02:23;18.67;;;11.17;;
50483;SDS011;36409;52.168;20.878;2024-01-15T00:04:53;16.80;;;9.30;;
50483;SDS011;36409;52.168;20.878;2024-01-15T00:07:28;16.27;;;9.43;;
50483;SDS011;36409;52.168;20.878;2024-01-15T00:09:58;15.57;;;9.50;;
50483;SDS011;36409;52.168;20.878;2024-01-15T00:12:28;18.53;;;10.27;;
50483;SDS011;36409;52.168;20.878;2024-01-15T00:14:57;14.93;;;8.37;;
50483;SDS011;36409;52.168;20.878;2024-01-15T00:17:27;18.57;;;9.13;;
50483;SDS011;36409;52.168;20.878;2024-01-15T00:19:56;14.00;;;9.13;;
50483;SDS011;36409;52.168;20.878;2024-01-15T00:22:25;16.47;;;9.03;;
50483;SDS011;36409;52.168;20.878;2024-01-15T00:24:55;17.80;;;9.90;;
50483;SDS011;36409;52.168;20.878;2024-01-15T00:27:27;19.93;;;9.23;;
50483;SDS011;36409;52.168;20.878;2024-01-15T00:29:58;20.40;;;9.47;;
50483;SDS011;36409;52.168;20.878;2024-01-15T00:32:31;16.17;;;9.17;;
50483;SDS011;36409;52.168;20.878;2024-01-15T00:35:04;18.43;;;9.57;;
50483;SDS011;36409;52.168;20.878;2024-01-15T00:37:35;13.30;;;8.30;;
50483;SDS011;36409;52.168;20.878;2024-01-15T00:40:09;15.97;;;9.53;;
50483;SDS011;36409;52.168;20.878;2024-01-15T00:42:39;16.33;;;9.60;;
50483;SDS011;36409;52.168;20.878;2024-01-15T00:45:09;14.83;;;9.90;;
50483;SDS011;36409;52.168;20.878;2024-01-15T00:47:39;14.60;;;8.87;;
50483;SDS011;36409;52.168;20.878;2024-01-15T00:50:10;19.40;;;9.57;;
50483;SDS011;36409;52.168;20.878;2024-01-15T00:52:46;19.75;;;10.30;;
50483;SDS011;36409;52.168;20.878;2024-01-15T00:57:59;15.67;;;9.50;;
50483;SDS011;36409;52.168;20.878;2024-01-15T01:00:28;17.70;;;10.27;;
50483;SDS011;36409;52.168;20.878;2024-01-15T01:03:01;17.97;;;10.03;;
50483;SDS011;36409;52.168;20.878;2024-01-15T01:05:32;17.13;;;10.23;;
50483;SDS011;36409;52.168;20.878;2024-01-15T01:08:05;17.47;;;10.77;;
50483;SDS011;36409;52.168;20.878;2024-01-15T01:10:36;17.00;;;10.47;;
50483;SDS011;36409;52.168;20.878;2024-01-15T01:13:05;20.00;;;10.67;;
50483;SDS011;36409;52.168;20.878;2024-01-15T01:15:37;21.87;;;11.80;;
50483;SDS011;36409;52.168;20.878;2024-01-15T01:18:09;17.00;;;11.33;;
50483;SDS011;36409;52.168;20.878;2024-01-15T01:20:38;19.10;;;11.67;;
50483;SDS011;36409;52.168;20.878;2024-01-15T01:23:10;18.13;;;10.10;;
50483;SDS011;36409;52.168;20.878;2024-01-15T01:25:41;20.27;;;11.33;;
50483;SDS011;36409;52.168;20.878;2024-01-15T01:28:10;20.23;;;11.83;;
50483;SDS011;36409;52.168;20.878;2024-01-15T01:30:39;19.73;;;12.27;;
50483;SDS011;36409;52.168;20.878;2024-01-15T01:33:09;20.70;;;12.13;;
50483;SDS011;36409;52.168;20.878;2024-01-15T01:35:41;19.70;;;11.67;;
50483;SDS011;36409;52.168;20.878;2024-01-15T01:38:11;19.10;;;11.87;;
50483;SDS011;36409;52.168;20.878;2024-01-15T01:40:40;20.97;;;11.47;;
50483;SDS011;36409;52.168;20.878;2024-01-15T01:43:11;19.90;;;12.20;;
50483;SDS011;36409;52.168;20.878;2024-01-15T01:45:40;20.47;;;11.97;;
50483;SDS011;36409;52.168;20.878;2024-01-15T01:48:09;20.80;;;12.03;;
50483;SDS011;36409;52.168;20.878;2024-01-15T01:50:39;19.73;;;12.00;;
50483;SDS011;36409;52.168;20.878;2024-01-15T01:53:09;17.97;;;11.43;;
50483;SDS011;36409;52.168;20.878;2024-01-15T01:55:40;22.33;;;13.00;;
50483;SDS011;36409;52.168;20.878;2024-01-15T01:58:11;20.15;;;11.93;;
50483;SDS011;36409;52.168;20.878;2024-01-15T02:00:47;18.37;;;11.83;;
50483;SDS011;36409;52.168;20.878;2024-01-15T02:03:18;19.77;;;12.27;;
50483;SDS011;36409;52.168;20.878;2024-01-15T02:05:50;21.40;;;12.03;;
50483;SDS011;36409;52.168;20.878;2024-01-15T02:08:22;20.20;;;12.43;;
50483;SDS011;36409;52.168;20.878;2024-01-15T02:10:54;22.03;;;12.73;;
50483;SDS011;36409;52.168;20.878;2024-01-15T02:13:23;19.77;;;12.60;;
50483;SDS011;36409;52.168;20.878;2024-01-15T02:15:52;24.33;;;13.47;;
50483;SDS011;36409;52.168;20.878;2024-01-15T02:18:21;20.90;;;12.00;;
50483;SDS011;36409;52.168;20.878;2024-01-15T02:20:51;20.47;;;12.73;;
50483;SDS011;36409;52.168;20.878;2024-01-15T02:23:24;19.30;;;12.23;;
50483;SDS011;36409;52.168;20.878;2024-01-15T02:25:56;18.10;;;11.33;;
50483;SDS011;36409;52.168;20.878;2024-01-15T02:28:25;20.33;;;11.80;;
50483;SDS011;36409;52.168;20.878;2024-01-15T02:30:57;20.87;;;13.20;;
50483;SDS011;36409;52.168;20.878;2024-01-15T02:33:26;19.57;;;12.07;;
50483;SDS011;36409;52.168;20.878;2024-01-15T02:35:56;23.20;;;12.97;;
50483;SDS011;36409;52.168;20.878;2024-01-15T02:38:25;21.77;;;12.83;;
50483;SDS011;36409;52.168;20.878;2024-01-15T02:40:55;20.45;;;12.15;;
50483;SDS011;36409;52.168;20.878;2024-01-15T02:43:25;21.23;;;12.73;;
50483;SDS011;36409;52.168;20.878;2024-01-15T02:45:56;20.40;;;12.30;;
50483;SDS011;36409;52.168;20.878;2024-01-15T02:48:26;20.47;;;11.83;;
50483;SDS011;36409;52.168;20.878;2024-01-15T02:51:00;19.83;;;12.20;;
50483;SDS011;36409;52.168;20.878;2024-01-15T02:53:30;21.23;;;12.53;;
50483;SDS011;36409;52.168;20.878;2024-01-15T02:55:59;20.30;;;12.03;;
50483;SDS011;36409;52.168;20.878;2024-01-15T02:58:34;18.60;;;11.63;;
50483;SDS011;36409;52.168;20.878;2024-01-15T03:01:03;20.03;;;12.37;;
50483;SDS011;36409;52.168;20.878;2024-01-15T03:03:32;21.23;;;11.93;;
50483;SDS011;36409;52.168;20.878;2024-01-15T03:06:05;18.73;;;12.00;;
50483;SDS011;36409;52.168;20.878;2024-01-15T03:08:37;20.73;;;12.30;;
50483;SDS011;36409;52.168;20.878;2024-01-15T03:11:06;21.70;;;12.43;;
50483;SDS011;36409;52.168;20.878;2024-01-15T03:13:38;21.47;;;13.20;;
50483;SDS011;36409;52.168;20.878;2024-01-15T03:16:15;23.57;;;14.17;;
50483;SDS011;36409;52.168;20.878;2024-01-15T03:18:48;24.33;;;14.13;;
50483;SDS011;36409;52.168;20.878;2024-01-15T03:21:19;26.03;;;14.83;;
50483;SDS011;36409;52.168;20.878;2024-01-15T03:23:54;22.07;;;12.70;;
50483;SDS011;36409;52.168;20.878;2024-01-15T03:26:23;22.73;;;14.03;;
50483;SDS011;36409;52.168;20.878;2024-01-15T03:28:52;25.00;;;13.37;;
50483;SDS011;36409;52.168;20.878;2024-01-15T03:31:21;21.37;;;12.83;;
50483;SDS011;36409;52.168;20.878;2024-01-15T03:33:51;23.40;;;12.80;;
50483;SDS011;36409;52.168;20.878;2024-01-15T03:36:24;22.13;;;12.67;;
50483;SDS011;36409;52.168;20.878;2024-01-15T03:38:53;25.60;;;15.03;;
50483;SDS011;36409;52.168;20.878;2024-01-15T03:41:24;26.97;;;14.53;;
50483;SDS011;36409;52.168;20.878;2024-01-15T03:43:56;26.60;;;13.00;;
50483;SDS011;36409;52.168;20.878;2024-01-15T03:46:29;24.30;;;13.47;;
50483;SDS011;36409;52.168;20.878;2024-01-15T03:48:58;22.00;;;12.33;;
50483;SDS011;36409;52.168;20.878;2024-01-15T03:51:27;22.23;;;12.47;;
50483;SDS011;36409;52.168;20.878;2024-01-15T03:53:57;22.47;;;12.90;;
50483;SDS011;36409;52.168;20.878;2024-01-15T03:56:29;22.47;;;12.47;;
50483;SDS011;36409;52.168;20.878;2024-01-15T03:58:58;23.20;;;13.00;;
50483;SDS011;36409;52.168;20.878;2024-01-15T04:01:27;22.43;;;12.50;;
50483;SDS011;36409;52.168;20.878;2024-01-15T04:03:57;22.03;;;12.40;;
50483;SDS011;36409;52.168;20.878;2024-01-15T04:06:26;21.70;;;12.80;;
50483;SDS011;36409;52.168;20.878;2024-01-15T04:08:55;21.40;;;11.93;;
50483;SDS011;36409;52.168;20.878;2024-01-15T04:11:25;19.60;;;12.00;;
50483;SDS011;36409;52.168;20.878;2024-01-15T04:13:55;18.93;;;11.40;;
50483;SDS011;36409;52.168;20.878;2024-01-15T04:16:25;18.07;;;11.43;;
50483;SDS011;36409;52.168;20.878;2024-01-15T04:18:54;18.63;;;11.33;;
50483;SDS011;36409;52.168;20.878;2024-01-15T04:21:24;17.80;;;11.13;;
50483;SDS011;36409;52.168;20.878;2024-01-15T04:23:55;20.43;;;11.27;;
50483;SDS011;36409;52.168;20.878;2024-01-15T04:26:32;18.57;;;11.03;;
50483;SDS011;36409;52.168;20.878;2024-01-15T04:29:01;18.80;;;11.80;;
50483;SDS011;36409;52.168;20.878;2024-01-15T04:31:30;18.00;;;11.23;;
50483;SDS011;36409;52.168;20.878;2024-01-15T04:33:59;18.90;;;10.20;;
50483;SDS011;36409;52.168;20.878;2024-01-15T04:36:29;18.53;;;10.37;;
50483;SDS011;36409;52.168;20.878;2024-01-15T04:38:59;20.23;;;11.00;;
50483;SDS011;36409;52.168;20.878;2024-01-15T04:41:30;18.60;;;10.80;;
50483;SDS011;36409;52.168;20.878;2024-01-15T04:44:02;17.97;;;9.80;;
50483;SDS011;36409;52.168;20.878;2024-01-15T04:46:31;17.93;;;9.63;;
50483;SDS011;36409;52.168;20.878;2024-01-15T04:49:06;16.03;;;9.67;;
50483;SDS011;36409;52.168;20.878;2024-01-15T04:51:43;19.20;;;10.23;;
50483;SDS011;36409;52.168;20.878;2024-01-15T04:54:14;14.47;;;9.00;;
50483;SDS011;36409;52.168;20.878;2024-01-15T04:56:52;15.97;;;9.10;;
50483;SDS011;36409;52.168;20.878;2024-01-15T04:59:22;16.43;;;10.07;;
50483;SDS011;36409;52.168;20.878;2024-01-15T05:01:54;16.37;;;10.00;;
50483;SDS011;36409;52.168;20.878;2024-01-15T05:04:23;17.53;;;10.37;;
50483;SDS011;36409;52.168;20.878;2024-01-15T05:06:59;16.55;;;8.90;;
50483;SDS011;36409;52.168;20.878;2024-01-15T05:09:28;18.87;;;10.20;;
50483;SDS011;36409;52.168;20.878;2024-01-15T05:12:00;19.13;;;9.60;;
50483;SDS011;36409;52.168;20.878;2024-01-15T05:14:29;20.03;;;10.60;;
50483;SDS011;36409;52.168;20.878;2024-01-15T05:17:01;19.03;;;10.67;;
50483;SDS011;36409;52.168;20.878;2024-01-15T05:22:13;16.00;;;9.57;;
50483;SDS011;36409;52.168;20.878;2024-01-15T05:24:45;18.53;;;10.97;;
50483;SDS011;36409;52.168;20.878;2024-01-15T05:27:17;17.50;;;10.30;;
50483;SDS011;36409;52.168;20.878;2024-01-15T05:32:21;16.30;;;9.37;;
50483;SDS011;36409;52.168;20.878;2024-01-15T05:34:50;17.37;;;9.20;;
50483;SDS011;36409;52.168;20.878;2024-01-15T05:37:22;15.90;;;9.17;;
50483;SDS011;36409;52.168;20.878;2024-01-15T05:39:53;17.23;;;10.13;;
50483;SDS011;36409;52.168;20.878;2024-01-15T05:42:24;14.63;;;8.93;;
50483;SDS011;36409;52.168;20.878;2024-01-15T05:44:54;14.93;;;8.90;;
50483;SDS011;36409;52.168;20.878;2024-01-15T05:47:23;14.20;;;8.67;;
50483;SDS011;36409;52.168;20.878;2024-01-15T05:49:52;14.43;;;9.10;;
50483;SDS011;36409;52.168;20.878;2024-01-15T05:52:30;16.30;;;9.40;;
50483;SDS011;36409;52.168;20.878;2024-01-15T05:55:03;14.03;;;8.47;;
50483;SDS011;36409;52.168;20.878;2024-01-15T05:57:33;13.67;;;8.53;;
50483;SDS011;36409;52.168;20.878;2024-01-15T06:00:02;18.53;;;8.90;;
50483;SDS011;36409;52.168;20.878;2024-01-15T06:02:32;14.60;;;9.33;;
50483;SDS011;36409;52.168;20.878;2024-01-15T06:05:01;15.33;;;8.73;;
50483;SDS011;36409;52.168;20.878;2024-01-15T06:07:31;14.90;;;8.67;;
50483;SDS011;36409;52.168;20.878;2024-01-15T06:10:02;17.10;;;9.10;;
50483;SDS011;36409;52.168;20.878;2024-01-15T06:12:33;16.43;;;9.23;;
50483;SDS011;36409;52.168;20.878;2024-01-15T06:15:02;16.83;;;10.83;;
50483;SDS011;36409;52.168;20.878;2024-01-15T06:17:34;16.47;;;11.13;;
50483;SDS011;36409;52.168;20.878;2024-01-15T06:20:04;23.60;;;14.43;;
50483;SDS011;36409;52.168;20.878;2024-01-15T06:22:37;16.40;;;9.95;;
50483;SDS011;36409;52.168;20.878;2024-01-15T06:25:10;18.53;;;9.83;;
50483;SDS011;36409;52.168;20.878;2024-01-15T06:27:40;16.00;;;10.20;;
50483;SDS011;36409;52.168;20.878;2024-01-15T06:30:10;15.70;;;10.03;;
50483;SDS011;36409;52.168;20.878;2024-01-15T06:32:44;16.37;;;9.97;;
50483;SDS011;36409;52.168;20.878;2024-01-15T06:35:14;16.30;;;9.37;;
50483;SDS011;36409;52.168;20.878;2024-01-15T06:37:46;16.93;;;10.57;;
50483;SDS011;36409;52.168;20.878;2024-01-15T06:40:15;16.47;;;9.30;;
50483;SDS011;36409;52.168;20.878;2024-01-15T06:42:51;17.17;;;10.40;;
50483;SDS011;36409;52.168;20.878;2024-01-15T06:45:20;16.60;;;11.30;;
50483;SDS011;36409;52.168;20.878;2024-01-15T06:47:52;14.57;;;9.73;;
50483;SDS011;36409;52.168;20.878;2024-01-15T06:50:21;16.40;;;10.57;;
50483;SDS011;36409;52.168;20.878;2024-01-15T06:52:51;18.53;;;11.07;;
50483;SDS011;36409;52.168;20.878;2024-01-15T06:55:23;17.90;;;10.00;;
50483;SDS011;36409;52.168;20.878;2024-01-15T06:57:53;15.63;;;9.37;;
50483;SDS011;36409;52.168;20.878;2024-01-15T07:00:22;16.43;;;10.57;;
50483;SDS011;36409;52.168;20.878;2024-01-15T07:02:54;16.27;;;9.47;;
50483;SDS011;36409;52.168;20.878;2024-01-15T07:05:24;18.27;;;9.90;;
50483;SDS011;36409;52.168;20.878;2024-01-15T07:07:53;17.47;;;11.10;;
50483;SDS011;36409;52.168;20.878;2024-01-15T07:10:23;17.25;;;11.10;;
50483;SDS011;36409;52.168;20.878;2024-01-15T07:12:54;17.13;;;10.60;;
50483;SDS011;36409;52.168;20.878;2024-01-15T07:15:25;19.43;;;11.33;;
50483;SDS011;36409;52.168;20.878;2024-01-15T07:17:57;16.43;;;9.93;;
50483;SDS011;36409;52.168;20.878;2024-01-15T07:20:27;16.43;;;10.17;;
50483;SDS011;36409;52.168;20.878;2024-01-15T07:23:00;20.17;;;11.50;;
50483;SDS011;36409;52.168;20.878;2024-01-15T07:25:30;17.20;;;10.90;;
50483;SDS011;36409;52.168;20.878;2024-01-15T07:27:59;19.70;;;11.37;;
50483;SDS011;36409;52.168;20.878;2024-01-15T07:30:29;18.37;;;10.63;;
50483;SDS011;36409;52.168;20.878;2024-01-15T07:32:59;17.97;;;10.67;;
50483;SDS011;36409;52.168;20.878;2024-01-15T07:35:28;19.03;;;11.40;;
50483;SDS011;36409;52.168;20.878;2024-01-15T07:38:00;18.03;;;10.67;;
50483;SDS011;36409;52.168;20.878;2024-01-15T07:40:30;16.93;;;10.13;;
50483;SDS011;36409;52.168;20.878;2024-01-15T07:43:01;18.90;;;10.77;;
50483;SDS011;36409;52.168;20.878;2024-01-15T07:45:30;15.23;;;10.33;;
50483;SDS011;36409;52.168;20.878;2024-01-15T07:48:00;19.03;;;10.30;;
50483;SDS011;36409;52.168;20.878;2024-01-15T07:50:33;16.73;;;10.25;;
50483;SDS011;36409;52.168;20.878;2024-01-15T07:53:03;18.63;;;9.90;;
50483;SDS011;36409;52.168;20.878;2024-01-15T07:55:41;18.50;;;8.93;;
50483;SDS011;36409;52.168;20.878;2024-01-15T07:58:12;15.30;;;9.50;;
50483;SDS011;36409;52.168;20.878;2024-01-15T08:00:44;17.47;;;10.10;;
50483;SDS011;36409;52.168;20.878;2024-01-15T08:03:19;15.07;;;9.80;;
50483;SDS011;36409;52.168;20.878;2024-01-15T08:05:51;16.15;;;9.40;;
50483;SDS011;36409;52.168;20.878;2024-01-15T08:08:23;13.47;;;8.70;;
50483;SDS011;36409;52.168;20.878;2024-01-15T08:10:56;15.57;;;8.80;;
50483;SDS011;36409;52.168;20.878;2024-01-15T08:13:28;20.60;;;10.73;;
50483;SDS011;36409;52.168;20.878;2024-01-15T08:16:00;25.97;;;13.53;;
50483;SDS011;36409;52.168;20.878;2024-01-15T08:18:30;15.93;;;10.70;;
50483;SDS011;36409;52.168;20.878;2024-01-15T08:21:00;13.53;;;9.53;;
50483;SDS011;36409;52.168;20.878;2024-01-15T08:23:30;13.20;;;8.80;;
50483;SDS011;36409;52.168;20.878;2024-01-15T08:25:59;17.07;;;9.43;;
50483;SDS011;36409;52.168;20.878;2024-01-15T08:28:28;15.00;;;9.47;;
50483;SDS011;36409;52.168;20.878;2024-01-15T08:30:58;14.90;;;9.63;;
50483;SDS011;36409;52.168;20.878;2024-01-15T08:33:28;17.27;;;11.37;;
50483;SDS011;36409;52.168;20.878;2024-01-15T08:35:57;14.10;;;9.73;;
50483;SDS011;36409;52.168;20.878;2024-01-15T08:38:26;17.47;;;10.80;;
50483;SDS011;36409;52.168;20.878;2024-01-15T08:40:59;16.60;;;10.60;;
50483;SDS011;36409;52.168;20.878;2024-01-15T08:43:29;18.80;;;11.33;;
50483;SDS011;36409;52.168;20.878;2024-01-15T08:46:02;19.07;;;11.80;;
50483;SDS011;36409;52.168;20.878;2024-01-15T08:48:34;18.90;;;12.30;;
50483;SDS011;36409;52.168;20.878;2024-01-15T08:51:04;18.47;;;10.30;;
50483;SDS011;36409;52.168;20.878;2024-01-15T08:53:33;19.17;;;10.57;;
50483;SDS011;36409;52.168;20.878;2024-01-15T08:56:04;17.75;;;10.95;;
50483;SDS011;36409;52.168;20.878;2024-01-15T08:58:34;16.50;;;10.33;;
50483;SDS011;36409;52.168;20.878;2024-01-15T09:01:03;19.10;;;9.93;;
50483;SDS011;36409;52.168;20.878;2024-01-15T09:03:36;17.23;;;9.83;;
50483;SDS011;36409;52.168;20.878;2024-01-15T09:06:09;15.97;;;9.80;;
50483;SDS011;36409;52.168;20.878;2024-01-15T09:08:44;12.20;;;8.17;;
50483;SDS011;36409;52.168;20.878;2024-01-15T09:11:13;16.85;;;8.65;;
50483;SDS011;36409;52.168;20.878;2024-01-15T09:13:43;13.70;;;8.17;;
50483;SDS011;36409;52.168;20.878;2024-01-15T09:16:12;13.93;;;8.47;;
50483;SDS011;36409;52.168;20.878;2024-01-15T09:18:44;12.47;;;6.90;;
50483;SDS011;36409;52.168;20.878;2024-01-15T09:21:14;11.20;;;6.63;;
50483;SDS011;36409;52.168;20.878;2024-01-15T09:23:45;12.87;;;7.40;;
50483;SDS011;36409;52.168;20.878;2024-01-15T09:26:15;13.17;;;7.10;;
50483;SDS011;36409;52.168;20.878;2024-01-15T09:31:17;15.23;;;6.33;;
50483;SDS011;36409;52.168;20.878;2024-01-15T09:33:47;12.03;;;5.80;;
50483;SDS011;36409;52.168;20.878;2024-01-15T09:36:23;11.27;;;6.10;;
50483;SDS011;36409;52.168;20.878;2024-01-15T09:38:53;12.67;;;5.30;;
50483;SDS011;36409;52.168;20.878;2024-01-15T09:41:22;12.67;;;5.77;;
50483;SDS011;36409;52.168;20.878;2024-01-15T09:43:53;11.83;;;5.63;;
50483;SDS011;36409;52.168;20.878;2024-01-15T09:46:28;11.75;;;4.85;;
50483;SDS011;36409;52.168;20.878;2024-01-15T09:48:59;13.83;;;6.00;;
50483;SDS011;36409;52.168;20.878;2024-01-15T09:51:29;12.20;;;6.00;;
50483;SDS011;36409;52.168;20.878;2024-01-15T09:54:00;12.10;;;5.10;;
50483;SDS011;36409;52.168;20.878;2024-01-15T09:56:32;14.07;;;6.10;;
50483;SDS011;36409;52.168;20.878;2024-01-15T09:59:02;13.03;;;5.53;;
50483;SDS011;36409;52.168;20.878;2024-01-15T10:01:37;11.07;;;5.47;;
50483;SDS011;36409;52.168;20.878;2024-01-15T10:04:08;12.23;;;5.08;;
50483;SDS011;36409;52.168;20.878;2024-01-15T10:06:38;12.27;;;5.20;;
50483;SDS011;36409;52.168;20.878;2024-01-15T10:09:13;15.77;;;5.63;;
50483;SDS011;36409;52.168;20.878;2024-01-15T10:11:46;12.57;;;6.13;;
50483;SDS011;36409;52.168;20.878;2024-01-15T10:14:19;11.87;;;6.07;;
50483;SDS011;36409;52.168;20.878;2024-01-15T10:16:48;14.30;;;6.40;;
50483;SDS011;36409;52.168;20.878;2024-01-15T10:19:18;10.27;;;5.70;;
50483;SDS011;36409;52.168;20.878;2024-01-15T10:21:47;11.40;;;6.50;;
50483;SDS011;36409;52.168;20.878;2024-01-15T10:24:25;13.27;;;6.20;;
50483;SDS011;36409;52.168;20.878;2024-01-15T10:27:05;13.15;;;6.80;;
50483;SDS011;36409;52.168;20.878;2024-01-15T10:29:35;13.83;;;6.00;;
50483;SDS011;36409;52.168;20.878;2024-01-15T10:34:55;13.53;;;6.93;;
50483;SDS011;36409;52.168;20.878;2024-01-15T10:37:25;15.37;;;7.67;;
50483;SDS011;36409;52.168;20.878;2024-01-15T10:39:56;18.90;;;9.80;;
50483;SDS011;36409;52.168;20.878;2024-01-15T10:42:26;11.37;;;7.63;;
50483;SDS011;36409;52.168;20.878;2024-01-15T10:44:55;14.63;;;6.17;;
50483;SDS011;36409;52.168;20.878;2024-01-15T10:47:28;12.03;;;6.33;;
50483;SDS011;36409;52.168;20.878;2024-01-15T10:49:58;11.93;;;5.93;;
50483;SDS011;36409;52.168;20.878;2024-01-15T10:52:30;13.80;;;7.10;;
50483;SDS011;36409;52.168;20.878;2024-01-15T10:55:03;10.20;;;6.00;;
50483;SDS011;36409;52.168;20.878;2024-01-15T10:57:41;11.27;;;5.57;;
50483;SDS011;36409;52.168;20.878;2024-01-15T11:00:15;13.43;;;6.17;;
50483;SDS011;36409;52.168;20.878;2024-01-15T11:03:05;11.87;;;6.40;;
50483;SDS011;36409;52.168;20.878;2024-01-15T11:05:37;13.93;;;6.47;;
50483;SDS011;36409;52.168;20.878;2024-01-15T11:08:10;13.28;;;6.08;;
50483;SDS011;36409;52.168;20.878;2024-01-15T11:10:40;14.40;;;6.90;;
50483;SDS011;36409;52.168;20.878;2024-01-15T11:13:14;10.00;;;5.83;;
50483;SDS011;36409;52.168;20.878;2024-01-15T11:15:55;14.30;;;6.92;;
50483;SDS011;36409;52.168;20.878;2024-01-15T11:18:31;12.57;;;6.43;;
50483;SDS011;36409;52.168;20.878;2024-01-15T11:21:22;13.10;;;6.80;;
50483;SDS011;36409;52.168;20.878;2024-01-15T11:23:54;11.15;;;5.58;;
50483;SDS011;36409;52.168;20.878;2024-01-15T11:26:29;12.13;;;6.60;;
50483;SDS011;36409;52.168;20.878;2024-01-15T11:29:02;12.50;;;6.33;;
50483;SDS011;36409;52.168;20.878;2024-01-15T11:37:20;11.27;;;6.17;;
50483;SDS011;36409;52.168;20.878;2024-01-15T11:39:54;11.88;;;6.42;;
50483;SDS011;36409;52.168;20.878;2024-01-15T11:42:26;15.40;;;7.23;;
50483;SDS011;36409;52.168;20.878;2024-01-15T11:44:56;15.83;;;7.70;;
50483;SDS011;36409;52.168;20.878;2024-01-15T11:47:38;13.27;;;6.00;;
50483;SDS011;36409;52.168;20.878;2024-01-15T11:50:30;12.43;;;5.80;;
50483;SDS011;36409;52.168;20.878;2024-01-15T11:53:00;13.23;;;6.83;;
50483;SDS011;36409;52.168;20.878;2024-01-15T11:55:41;12.63;;;6.83;;
50483;SDS011;36409;52.168;20.878;2024-01-15T11:58:13;12.63;;;6.70;;
50483;SDS011;36409;52.168;20.878;2024-01-15T12:00:45;13.70;;;7.03;;
50483;SDS011;36409;52.168;20.878;2024-01-15T12:03:22;13.20;;;6.50;;
50483;SDS011;36409;52.168;20.878;2024-01-15T12:05:54;15.50;;;7.47;;
50483;SDS011;36409;52.168;20.878;2024-01-15T12:08:27;16.20;;;7.20;;
50483;SDS011;36409;52.168;20.878;2024-01-15T12:10:57;14.13;;;6.60;;
50483;SDS011;36409;52.168;20.878;2024-01-15T12:13:25;16.40;;;7.50;;
50483;SDS011;36409;52.168;20.878;2024-01-15T12:15:56;12.90;;;6.47;;
50483;SDS011;36409;52.168;20.878;2024-01-15T12:18:25;14.23;;;7.30;;
50483;SDS011;36409;52.168;20.878;2024-01-15T12:20:56;16.40;;;7.97;;
50483;SDS011;36409;52.168;20.878;2024-01-15T12:23:27;13.45;;;7.55;;
50483;SDS011;36409;52.168;20.878;2024-01-15T12:25:56;14.47;;;8.17;;
50483;SDS011;36409;52.168;20.878;2024-01-15T12:28:27;15.83;;;7.83;;
50483;SDS011;36409;52.168;20.878;2024-01-15T12:30:58;14.30;;;7.95;;
50483;SDS011;36409;52.168;20.878;2024-01-15T12:33:33;20.20;;;10.00;;
50483;SDS011;36409;52.168;20.878;2024-01-15T12:36:04;18.70;;;10.60;;
50483;SDS011;36409;52.168;20.878;2024-01-15T12:38:34;16.67;;;8.43;;
50483;SDS011;36409;52.168;20.878;2024-01-15T12:41:04;14.20;;;8.07;;
50483;SDS011;36409;52.168;20.878;2024-01-15T12:43:34;14.37;;;8.10;;
50483;SDS011;36409;52.168;20.878;2024-01-15T12:46:03;17.43;;;8.43;;
50483;SDS011;36409;52.168;20.878;2024-01-15T12:48:33;16.10;;;8.57;;
50483;SDS011;36409;52.168;20.878;2024-01-15T12:51:06;20.15;;;8.35;;
50483;SDS011;36409;52.168;20.878;2024-01-15T12:53:36;16.83;;;8.03;;
50483;SDS011;36409;52.168;20.878;2024-01-15T12:56:05;19.90;;;11.37;;
50483;SDS011;36409;52.168;20.878;2024-01-15T12:58:35;18.37;;;8.63;;
50483;SDS011;36409;52.168;20.878;2024-01-15T13:01:04;17.07;;;8.80;;
50483;SDS011;36409;52.168;20.878;2024-01-15T13:03:33;17.13;;;9.00;;
50483;SDS011;36409;52.168;20.878;2024-01-15T13:06:03;17.50;;;8.23;;
50483;SDS011;36409;52.168;20.878;2024-01-15T13:08:33;16.10;;;8.10;;
50483;SDS011;36409;52.168;20.878;2024-01-15T13:11:02;15.87;;;8.10;;
50483;SDS011;36409;52.168;20.878;2024-01-15T13:13:31;21.07;;;9.17;;
50483;SDS011;36409;52.168;20.878;2024-01-15T13:16:05;19.20;;;8.70;;
50483;SDS011;36409;52.168;20.878;2024-01-15T13:18:36;18.90;;;9.30;;
50483;SDS011;36409;52.168;20.878;2024-01-15T13:21:05;16.63;;;8.53;;
50483;SDS011;36409;52.168;20.878;2024-01-15T13:23:34;19.23;;;9.93;;
50483;SDS011;36409;52.168;20.878;2024-01-15T13:26:04;18.70;;;9.57;;
50483;SDS011;36409;52.168;20.878;2024-01-15T13:28:34;19.47;;;9.23;;
50483;SDS011;36409;52.168;20.878;2024-01-15T13:31:03;22.07;;;10.10;;
50483;SDS011;36409;52.168;20.878;2024-01-15T13:33:32;15.77;;;8.90;;
50483;SDS011;36409;52.168;20.878;2024-01-15T13:36:02;20.80;;;9.67;;
50483;SDS011;36409;52.168;20.878;2024-01-15T13:38:37;17.67;;;8.33;;
50483;SDS011;36409;52.168;20.878;2024-01-15T13:41:12;17.90;;;9.00;;
50483;SDS011;36409;52.168;20.878;2024-01-15T13:43:42;19.10;;;9.37;;
50483;SDS011;36409;52.168;20.878;2024-01-15T13:46:11;17.87;;;8.73;;
50483;SDS011;36409;52.168;20.878;2024-01-15T13:48:40;16.97;;;9.43;;
50483;SDS011;36409;52.168;20.878;2024-01-15T13:51:09;17.10;;;8.10;;
50483;SDS011;36409;52.168;20.878;2024-01-15T13:53:38;17.27;;;8.73;;
50483;SDS011;36409;52.168;20.878;2024-01-15T13:56:08;17.50;;;8.23;;
50483;SDS011;36409;52.168;20.878;2024-01-15T13:58:38;19.67;;;8.20;;
50483;SDS011;36409;52.168;20.878;2024-01-15T14:01:10;16.03;;;7.90;;
50483;SDS011;36409;52.168;20.878;2024-01-15T14:03:47;19.37;;;8.33;;
50483;SDS011;36409;52.168;20.878;2024-01-15T14:06:20;16.87;;;8.53;;
50483;SDS011;36409;52.168;20.878;2024-01-15T14:08:52;19.23;;;9.03;;
50483;SDS011;36409;52.168;20.878;2024-01-15T14:11:22;19.83;;;10.53;;
50483;SDS011;36409;52.168;20.878;2024-01-15T14:13:52;22.40;;;10.70;;
50483;SDS011;36409;52.168;20.878;2024-01-15T14:16:21;19.70;;;9.80;;
50483;SDS011;36409;52.168;20.878;2024-01-15T14:18:54;25.57;;;11.47;;
50483;SDS011;36409;52.168;20.878;2024-01-15T14:21:23;18.83;;;10.57;;
50483;SDS011;36409;52.168;20.878;2024-01-15T14:23:53;27.20;;;12.53;;
50483;SDS011;36409;52.168;20.878;2024-01-15T14:26:22;23.50;;;12.67;;
50483;SDS011;36409;52.168;20.878;2024-01-15T14:28:51;24.50;;;10.37;;
50483;SDS011;36409;52.168;20.878;2024-01-15T14:31:21;21.07;;;10.83;;
50483;SDS011;36409;52.168;20.878;2024-01-15T14:33:53;20.43;;;9.67;;
50483;SDS011;36409;52.168;20.878;2024-01-15T14:36:23;22.37;;;10.10;;
50483;SDS011;36409;52.168;20.878;2024-01-15T14:38:53;19.10;;;9.83;;
50483;SDS011;36409;52.168;20.878;2024-01-15T14:41:23;22.20;;;8.97;;
50483;SDS011;36409;52.168;20.878;2024-01-15T14:43:53;20.03;;;9.40;;
50483;SDS011;36409;52.168;20.878;2024-01-15T14:46:22;19.47;;;9.40;;
50483;SDS011;36409;52.168;20.878;2024-01-15T14:48:51;19.90;;;9.47;;
50483;SDS011;36409;52.168;20.878;2024-01-15T14:51:22;16.87;;;8.80;;
50483;SDS011;36409;52.168;20.878;2024-01-15T14:53:51;18.20;;;9.17;;
50483;SDS011;36409;52.168;20.878;2024-01-15T14:56:21;18.07;;;8.93;;
50483;SDS011;36409;52.168;20.878;2024-01-15T14:58:50;23.10;;;10.30;;